Time;durP1;ratioP1;P1;durP2;ratioP2;P2;SDS_P1;SDS_P2;PMS_P1;PMS_P2;Temp;Humidity;BMP_temperature;BMP_pressure;BME280_temperature;BME280_humidity;BME280_pressure;Samples;Min_cycle;Max_cycle;Signal;HPM_P1;HPM_P2
2022/11/12 00:00:13;;;;;;;39.83;27.90;;;3.10;99.90;;;;;;5053665;28;20271;-74
2022/11/12 00:02:39;;;;;;;38.07;25.80;;;3.10;99.90;;;;;;5053687;28;20197;-74
2022/11/12 00:05:06;;;;;;;39.80;26.33;;;3.10;99.90;;;;;;5053490;28;20206;-74
2022/11/12 00:07:33;;;;;;;33.17;24.23;;;3.00;99.90;;;;;;5053484;28;20574;-74
2022/11/12 00:10:00;;;;;;;34.00;24.20;;;3.00;99.90;;;;;;5055085;28;20201;-74
2022/11/12 00:12:26;;;;;;;35.07;25.47;;;2.90;99.90;;;;;;5055326;28;20197;-74
2022/11/12 00:14:53;;;;;;;34.87;24.90;;;2.90;99.90;;;;;;5055607;28;20252;-74
2022/11/12 00:17:21;;;;;;;37.40;25.93;;;2.90;99.90;;;;;;5053395;28;20205;-74
2022/11/12 00:19:48;;;;;;;32.83;25.17;;;2.80;99.90;;;;;;5052957;28;20554;-74
2022/11/12 00:22:14;;;;;;;39.83;26.23;;;2.80;99.90;;;;;;5053606;28;20284;-74
2022/11/12 00:24:41;;;;;;;39.50;25.73;;;2.80;99.90;;;;;;5053308;28;20252;-73
2022/11/12 00:27:08;;;;;;;59.10;27.50;;;2.80;99.90;;;;;;5053910;28;20202;-74
2022/11/12 00:29:34;;;;;;;38.50;25.90;;;2.80;99.90;;;;;;5053722;28;20224;-74
2022/11/12 00:32:01;;;;;;;34.93;25.27;;;2.80;99.90;;;;;;5053109;28;20599;-73
2022/11/12 00:34:30;;;;;;;45.10;27.07;;;2.80;99.90;;;;;;5053093;28;20758;-73
2022/11/12 00:36:56;;;;;;;52.67;30.27;;;2.80;99.90;;;;;;5054130;28;20223;-73
2022/11/12 00:39:23;;;;;;;74.97;29.77;;;2.90;99.90;;;;;;5056038;28;20251;-73
2022/11/12 00:41:50;;;;;;;93.83;32.60;;;2.80;99.90;;;;;;5055939;28;20194;-73
2022/11/12 00:44:17;;;;;;;53.77;27.47;;;2.80;99.90;;;;;;5055225;28;20197;-73
2022/11/12 00:46:43;;;;;;;47.27;27.33;;;2.70;99.90;;;;;;5055062;28;20247;-73
2022/11/12 00:49:10;;;;;;;58.13;29.30;;;2.60;99.90;;;;;;5053522;28;20198;-73
2022/11/12 00:51:38;;;;;;;49.10;26.23;;;2.50;99.90;;;;;;5053242;28;20206;-74
2022/11/12 00:54:06;;;;;;;55.03;27.37;;;2.50;99.90;;;;;;5053028;28;20225;-73
2022/11/12 00:56:33;;;;;;;38.30;25.57;;;2.40;99.90;;;;;;5053195;28;20197;-73
2022/11/12 00:58:59;;;;;;;39.90;27.40;;;2.30;99.90;;;;;;5053020;28;20251;-74
2022/11/12 01:01:27;;;;;;;40.57;27.37;;;2.30;99.90;;;;;;5053787;28;20205;-73
2022/11/12 01:03:54;;;;;;;37.77;26.43;;;2.30;99.90;;;;;;5057016;28;20201;-74
2022/11/12 01:06:22;;;;;;;34.73;25.60;;;2.20;99.90;;;;;;5057308;28;20627;-73
2022/11/12 01:08:51;;;;;;;39.80;25.87;;;2.20;99.90;;;;;;5059383;28;20205;-73
2022/11/12 01:11:20;;;;;;;45.03;29.57;;;2.20;99.90;;;;;;5062342;28;20202;-73
2022/11/12 01:13:52;;;;;;;42.17;28.97;;;2.10;99.90;;;;;;5062850;28;20596;-73
2022/11/12 01:16:21;;;;;;;45.63;31.43;;;2.20;99.90;;;;;;5063139;28;20251;-73
2022/11/12 01:18:51;;;;;;;37.87;27.10;;;2.20;99.90;;;;;;5063560;28;20193;-73
2022/11/12 01:21:18;;;;;;;41.00;27.63;;;2.20;99.90;;;;;;5063551;28;20202;-73
2022/11/12 01:23:45;;;;;;;42.53;27.87;;;2.10;99.90;;;;;;5062747;28;20193;-73
2022/11/12 01:26:14;;;;;;;39.90;28.03;;;2.10;99.90;;;;;;5062880;28;20718;-73
2022/11/12 01:28:42;;;;;;;76.37;30.87;;;2.10;99.90;;;;;;5061517;28;20243;-73
2022/11/12 01:31:17;;;;;;;52.37;28.57;;;2.00;99.90;;;;;;5060467;28;20252;-73
2022/11/12 01:33:48;;;;;;;43.20;27.27;;;2.00;99.90;;;;;;5060133;28;20193;-73
2022/11/12 01:36:16;;;;;;;43.10;26.60;;;2.00;99.90;;;;;;5058755;28;20255;-73
2022/11/12 01:38:44;;;;;;;48.43;25.70;;;2.00;99.90;;;;;;5058910;28;20197;-73
2022/11/12 01:41:15;;;;;;;54.90;28.73;;;2.00;99.90;;;;;;5058977;28;20649;-73
2022/11/12 01:43:42;;;;;;;53.57;29.13;;;2.00;99.90;;;;;;5059037;28;20244;-73
2022/11/12 01:46:16;;;;;;;50.90;29.10;;;2.00;99.90;;;;;;5058867;28;20224;-73
2022/11/12 01:48:49;;;;;;;51.17;28.93;;;2.00;99.90;;;;;;5061487;28;20248;-73
2022/11/12 01:51:16;;;;;;;55.17;30.10;;;2.00;99.90;;;;;;5061267;28;20255;-74
2022/11/12 01:53:47;;;;;;;46.80;27.57;;;2.10;99.90;;;;;;5059773;28;20600;-74
2022/11/12 01:56:16;;;;;;;46.33;26.57;;;2.10;99.90;;;;;;5060084;28;20197;-74
2022/11/12 01:58:46;;;;;;;49.77;28.77;;;2.20;99.90;;;;;;5057247;28;20562;-74
2022/11/12 02:01:12;;;;;;;44.17;30.37;;;2.20;99.90;;;;;;5057184;28;20338;-74
2022/11/12 02:03:39;;;;;;;45.90;30.70;;;2.20;99.90;;;;;;5056783;28;20288;-74
2022/11/12 02:06:09;;;;;;;47.03;30.07;;;2.10;99.90;;;;;;5056253;28;20202;-73
2022/11/12 02:08:38;;;;;;;46.00;27.40;;;2.10;99.90;;;;;;5056557;28;20194;-74
2022/11/12 02:11:13;;;;;;;42.90;27.67;;;2.20;99.90;;;;;;5057562;28;20193;-74
2022/11/12 02:14:00;;;;;;;44.43;27.50;;;2.30;99.90;;;;;;5057034;28;20288;-74
2022/11/12 02:16:30;;;;;;;41.13;25.83;;;2.30;99.90;;;;;;5057863;28;20244;-73
2022/11/12 02:18:57;;;;;;;40.40;25.13;;;2.40;99.90;;;;;;5056767;28;20197;-74
2022/11/12 02:21:26;;;;;;;35.07;23.37;;;2.40;99.90;;;;;;5056302;28;20198;-74
2022/11/12 02:24:04;;;;;;;34.53;23.60;;;2.50;99.90;;;;;;5056323;28;20202;-74
2022/11/12 02:26:34;;;;;;;33.80;22.87;;;2.50;99.90;;;;;;5056479;28;20675;-74
2022/11/12 02:29:01;;;;;;;31.23;22.70;;;2.50;99.90;;;;;;5056674;28;20197;-73
2022/11/12 02:31:28;;;;;;;30.17;21.93;;;2.50;99.90;;;;;;5056830;28;20193;-74
2022/11/12 02:33:55;;;;;;;30.77;22.63;;;2.70;99.90;;;;;;5056166;28;20243;-74
2022/11/12 02:36:22;;;;;;;30.23;22.10;;;2.60;99.90;;;;;;5055793;28;20603;-74
2022/11/12 02:38:50;;;;;;;30.23;22.63;;;2.60;99.90;;;;;;5055486;28;20198;-74
2022/11/12 02:41:17;;;;;;;29.73;21.60;;;2.60;99.90;;;;;;5055659;28;20198;-74
2022/11/12 02:43:44;;;;;;;33.93;23.83;;;2.70;99.90;;;;;;5055700;28;20202;-74
2022/11/12 02:46:11;;;;;;;35.57;23.83;;;2.70;99.90;;;;;;5055890;28;20302;-74
2022/11/12 02:48:38;;;;;;;27.87;20.97;;;2.70;99.90;;;;;;5055386;28;20248;-74
2022/11/12 02:51:05;;;;;;;32.70;22.30;;;2.70;99.90;;;;;;5055205;28;20896;-74
2022/11/12 02:53:32;;;;;;;31.33;21.27;;;2.70;99.90;;;;;;5054640;28;20252;-74
2022/11/12 02:56:00;;;;;;;31.33;21.67;;;2.70;99.90;;;;;;5055393;28;20778;-74
2022/11/12 02:58:27;;;;;;;27.60;21.60;;;2.60;99.90;;;;;;5055407;28;20197;-74
2022/11/12 03:00:55;;;;;;;28.23;21.07;;;2.70;99.90;;;;;;5055635;28;20220;-73
2022/11/12 03:03:21;;;;;;;28.70;20.23;;;2.60;99.90;;;;;;5055738;28;20268;-73
2022/11/12 03:05:55;;;;;;;30.90;20.87;;;2.70;99.90;;;;;;5055740;28;20202;-73
2022/11/12 03:08:22;;;;;;;25.47;19.50;;;2.70;99.90;;;;;;5055792;28;20227;-73
2022/11/12 03:10:48;;;;;;;27.70;20.13;;;2.70;99.90;;;;;;5055710;28;20198;-73
2022/11/12 03:13:16;;;;;;;27.67;21.20;;;2.70;99.90;;;;;;5056809;28;20616;-73
2022/11/12 03:15:43;;;;;;;28.80;21.20;;;2.70;99.90;;;;;;5055549;28;20229;-73
2022/11/12 03:18:10;;;;;;;27.73;21.00;;;2.70;99.90;;;;;;5054927;28;20201;-73
2022/11/12 03:20:36;;;;;;;27.77;21.00;;;2.80;99.90;;;;;;5054850;28;20662;-73
2022/11/12 03:23:05;;;;;;;28.07;21.23;;;2.80;99.90;;;;;;5054927;28;20605;-74
2022/11/12 03:25:32;;;;;;;26.73;20.40;;;2.70;99.90;;;;;;5054201;28;20259;-74
2022/11/12 03:27:59;;;;;;;25.87;19.77;;;2.80;99.90;;;;;;5056856;28;20267;-74
2022/11/12 03:30:29;;;;;;;26.50;19.67;;;2.80;99.90;;;;;;5062202;28;20203;-74
2022/11/12 03:32:56;;;;;;;26.13;20.10;;;2.70;99.90;;;;;;5063006;28;20199;-74
2022/11/12 03:35:23;;;;;;;28.23;20.57;;;2.70;99.90;;;;;;5063062;28;20244;-74
2022/11/12 03:37:50;;;;;;;26.77;20.67;;;2.70;99.90;;;;;;5061946;28;20197;-74
2022/11/12 03:40:17;;;;;;;26.43;20.73;;;2.70;99.90;;;;;;5059646;28;20198;-75
2022/11/12 03:42:46;;;;;;;26.33;20.40;;;2.70;99.90;;;;;;5055313;28;20202;-74
2022/11/12 03:45:13;;;;;;;27.30;20.30;;;2.70;99.90;;;;;;5054711;28;20213;-74
2022/11/12 03:47:43;;;;;;;27.40;20.07;;;2.70;99.90;;;;;;5055481;28;20193;-74
2022/11/12 03:50:10;;;;;;;28.33;20.50;;;2.70;99.90;;;;;;5055640;28;20287;-75
2022/11/12 03:52:37;;;;;;;26.73;20.07;;;2.70;99.90;;;;;;5054695;28;20347;-74
2022/11/12 03:55:04;;;;;;;25.17;20.07;;;2.70;99.90;;;;;;5054526;28;20631;-74
2022/11/12 03:57:31;;;;;;;26.77;20.10;;;2.70;99.90;;;;;;5054763;28;20222;-74
2022/11/12 03:59:58;;;;;;;25.40;19.97;;;2.60;99.90;;;;;;5054843;28;20202;-74
2022/11/12 04:02:25;;;;;;;25.47;19.90;;;2.60;99.90;;;;;;5054145;28;20197;-74
2022/11/12 04:10:21;;;;;;;26.73;20.17;;;2.50;99.90;;;;;;5053846;28;20201;-74
2022/11/12 04:15:33;;;;;;;26.57;20.23;;;2.40;99.90;;;;;;5053959;28;20695;-74
2022/11/12 04:23:28;;;;;;;33.00;21.30;;;2.30;99.90;;;;;;5053792;28;20549;-74
2022/11/12 04:30:14;;;;;;;29.30;20.43;;;2.30;99.90;;;;;;5053761;28;20320;-74
2022/11/12 04:31:25;;;;;;;28.83;20.13;;;2.20;99.90;;;;;;5053873;28;20228;-74
2022/11/12 04:33:51;;;;;;;28.03;19.33;;;2.20;99.90;;;;;;5053458;28;20259;-74
2022/11/12 04:36:19;;;;;;;23.70;19.13;;;2.20;99.90;;;;;;5055309;28;20229;-74
2022/11/12 04:38:46;;;;;;;24.83;19.20;;;2.20;99.90;;;;;;5057338;28;20263;-74
2022/11/12 04:46:41;;;;;;;25.60;18.73;;;2.30;99.90;;;;;;5057087;28;20201;-74
2022/11/12 04:49:08;;;;;;;28.10;19.73;;;2.20;99.90;;;;;;5057263;28;20227;-74
2022/11/12 04:54:20;;;;;;;28.83;18.87;;;2.30;99.90;;;;;;5056847;28;20263;-74
2022/11/12 04:56:46;;;;;;;24.40;18.93;;;2.40;99.90;;;;;;5056740;28;20255;-74
2022/11/12 04:59:13;;;;;;;24.43;18.20;;;2.40;99.90;;;;;;5056796;28;20593;-74
2022/11/12 05:01:39;;;;;;;25.43;19.47;;;2.40;99.90;;;;;;5056702;28;20336;-73
2022/11/12 05:04:06;;;;;;;25.77;19.00;;;2.40;99.90;;;;;;5056932;28;20247;-73
2022/11/12 05:06:51;;;;;;;26.07;18.53;;;2.40;99.90;;;;;;5056474;28;20283;-74
2022/11/12 05:09:21;;;;;;;25.17;18.30;;;2.40;99.90;;;;;;5056566;28;20213;-73
2022/11/12 05:11:48;;;;;;;21.67;17.63;;;2.40;99.90;;;;;;5056340;28;20227;-73
2022/11/12 05:14:16;;;;;;;26.30;17.87;;;2.40;99.90;;;;;;5056722;28;20198;-74
2022/11/12 05:16:43;;;;;;;24.63;18.47;;;2.40;99.90;;;;;;5056457;28;20225;-74
2022/11/12 05:19:10;;;;;;;23.10;18.00;;;2.30;99.90;;;;;;5056676;28;20201;-74
2022/11/12 05:24:22;;;;;;;24.07;17.90;;;2.20;99.90;;;;;;5056601;28;20201;-74
2022/11/12 05:26:49;;;;;;;25.63;18.53;;;2.20;99.90;;;;;;5056703;28;20198;-74
2022/11/12 05:29:15;;;;;;;23.73;18.47;;;2.20;99.90;;;;;;5056175;28;20202;-74
2022/11/12 05:31:42;;;;;;;19.67;17.13;;;2.00;99.90;;;;;;5056231;28;20262;-73
2022/11/12 05:34:09;;;;;;;22.33;17.40;;;2.00;99.90;;;;;;5056359;28;20205;-73
2022/11/12 05:36:36;;;;;;;22.23;17.27;;;2.00;99.90;;;;;;5055844;28;20221;-73
2022/11/12 05:39:02;;;;;;;22.80;18.50;;;2.00;99.90;;;;;;5056267;28;20194;-72
2022/11/12 05:41:31;;;;;;;24.47;17.93;;;2.00;99.90;;;;;;5055969;28;20255;-73
2022/11/12 05:43:57;;;;;;;25.27;18.37;;;1.90;99.90;;;;;;5055967;28;20202;-73
2022/11/12 05:46:24;;;;;;;23.83;18.27;;;1.80;99.90;;;;;;5055858;28;20272;-73
2022/11/12 05:48:51;;;;;;;22.63;18.13;;;1.80;99.90;;;;;;5055248;28;20271;-73
2022/11/12 05:51:17;;;;;;;22.07;17.83;;;1.80;99.90;;;;;;5055856;28;20267;-73
2022/11/12 05:53:44;;;;;;;22.53;17.30;;;1.70;99.90;;;;;;5055971;28;20603;-73
2022/11/12 05:56:12;;;;;;;21.73;17.30;;;1.70;99.90;;;;;;5055561;28;20767;-73
2022/11/12 05:58:40;;;;;;;20.70;17.37;;;1.60;99.90;;;;;;5055682;28;20608;-73
2022/11/12 06:01:06;;;;;;;20.90;16.80;;;1.60;99.90;;;;;;5055588;28;20201;-73
2022/11/12 06:03:33;;;;;;;19.70;15.97;;;1.60;99.90;;;;;;5055375;28;20210;-73
2022/11/12 06:06:00;;;;;;;19.03;16.27;;;1.60;99.90;;;;;;5055448;28;20236;-73
2022/11/12 06:08:27;;;;;;;20.57;16.47;;;1.60;99.90;;;;;;5055628;28;20197;-73
2022/11/12 06:10:54;;;;;;;22.37;17.40;;;1.60;99.90;;;;;;5055403;28;20197;-73
2022/11/12 06:13:24;;;;;;;23.70;17.63;;;1.50;99.90;;;;;;5055488;28;20201;-73
2022/11/12 06:15:52;;;;;;;23.77;18.07;;;1.50;99.90;;;;;;5055174;28;20214;-73
2022/11/12 06:18:19;;;;;;;26.90;18.60;;;1.50;99.90;;;;;;5055157;28;20205;-73
2022/11/12 06:21:18;;;;;;;30.67;18.73;;;1.40;99.90;;;;;;5055568;28;20198;-73
2022/11/12 06:23:32;;;;;;;41.10;21.20;;;1.40;99.90;;;;;;5055109;28;20230;-73
2022/11/12 06:25:59;;;;;;;36.20;21.53;;;1.40;99.90;;;;;;5055220;28;20202;-73
2022/11/12 06:28:25;;;;;;;37.83;22.57;;;1.40;99.90;;;;;;5055183;28;20564;-73
2022/11/12 06:30:53;;;;;;;28.77;19.10;;;1.40;99.90;;;;;;5054988;28;20197;-73
2022/11/12 06:33:20;;;;;;;25.07;18.70;;;1.50;99.90;;;;;;5055308;28;20202;-73
2022/11/12 06:35:47;;;;;;;25.57;17.40;;;1.50;99.90;;;;;;5054964;28;20615;-74
2022/11/12 06:38:14;;;;;;;26.83;17.43;;;1.50;99.90;;;;;;5054863;28;20205;-73
2022/11/12 06:40:41;;;;;;;24.17;16.87;;;1.50;99.90;;;;;;5055539;28;20209;-73
2022/11/12 06:43:08;;;;;;;23.90;17.27;;;1.50;99.90;;;;;;5057359;28;20247;-73
2022/11/12 06:45:36;;;;;;;22.47;18.07;;;1.50;99.90;;;;;;5055559;28;20197;-73
2022/11/12 06:48:04;;;;;;;27.47;19.63;;;1.60;99.90;;;;;;5055230;28;20259;-73
2022/11/12 06:50:31;;;;;;;35.90;20.43;;;1.70;99.90;;;;;;5055991;28;20197;-73
2022/11/12 06:52:58;;;;;;;34.00;21.83;;;1.70;99.90;;;;;;5055591;28;20328;-73
2022/11/12 06:55:25;;;;;;;33.97;22.07;;;1.70;99.90;;;;;;5055386;28;20262;-74
2022/11/12 06:57:52;;;;;;;42.27;23.50;;;1.80;99.90;;;;;;5055637;28;20193;-73
2022/11/12 07:00:19;;;;;;;36.23;22.90;;;1.80;99.90;;;;;;5055278;28;20198;-74
2022/11/12 07:02:46;;;;;;;34.63;22.27;;;1.90;99.90;;;;;;5054601;28;20197;-73
2022/11/12 07:05:14;;;;;;;31.03;21.70;;;2.00;99.90;;;;;;5054887;28;20255;-73
2022/11/12 07:07:41;;;;;;;31.73;21.50;;;2.00;99.90;;;;;;5054217;28;20233;-73
2022/11/12 07:10:09;;;;;;;29.60;21.20;;;2.10;99.90;;;;;;5054478;28;20194;-74
2022/11/12 07:12:35;;;;;;;29.90;21.33;;;2.20;99.90;;;;;;5055170;28;20259;-74
2022/11/12 07:15:02;;;;;;;29.33;20.57;;;2.20;99.90;;;;;;5054774;28;20194;-74
2022/11/12 07:17:29;;;;;;;26.30;20.37;;;2.30;99.90;;;;;;5054562;28;20275;-74
2022/11/12 07:19:55;;;;;;;24.60;19.53;;;2.30;99.90;;;;;;5055395;28;20206;-75
2022/11/12 07:22:23;;;;;;;22.57;18.90;;;2.40;99.90;;;;;;5056153;28;20205;-77
2022/11/12 07:24:50;;;;;;;28.43;23.80;;;2.50;99.90;;;;;;5074655;28;20597;-74
2022/11/12 07:27:17;;;;;;;28.83;20.67;;;2.60;99.90;;;;;;5075402;28;20205;-78
2022/11/12 07:29:43;;;;;;;29.53;22.77;;;2.70;99.90;;;;;;5077747;28;20725;-73
2022/11/12 07:32:10;;;;;;;30.30;21.47;;;2.80;99.90;;;;;;5076501;28;20197;-74
2022/11/12 07:34:37;;;;;;;28.57;22.03;;;2.90;99.90;;;;;;5074785;28;20197;-72
2022/11/12 07:37:03;;;;;;;27.20;22.10;;;3.00;99.90;;;;;;5073861;28;20271;-76
2022/11/12 07:39:31;;;;;;;25.77;21.50;;;3.10;99.90;;;;;;5075017;28;20231;-73
2022/11/12 07:41:58;;;;;;;26.70;21.83;;;3.20;99.90;;;;;;5073361;28;20201;-74
2022/11/12 07:44:25;;;;;;;27.07;20.70;;;3.30;99.90;;;;;;5073039;28;20202;-75
2022/11/12 07:46:51;;;;;;;27.57;21.53;;;3.40;99.90;;;;;;5073016;28;20199;-73
2022/11/12 07:49:18;;;;;;;24.47;20.43;;;3.50;99.90;;;;;;5072787;28;20258;-76
2022/11/12 07:51:45;;;;;;;28.67;21.37;;;3.60;99.90;;;;;;5072816;28;20205;-73
2022/11/12 07:54:12;;;;;;;27.63;21.47;;;3.70;99.90;;;;;;5072660;28;20258;-73
2022/11/12 07:56:40;;;;;;;25.70;19.80;;;3.80;99.90;;;;;;5072715;28;20235;-74
2022/11/12 07:59:07;;;;;;;22.40;19.80;;;3.80;99.90;;;;;;5072833;28;20262;-74
2022/11/12 08:01:35;;;;;;;21.27;18.60;;;3.90;99.90;;;;;;5072704;28;20200;-73
2022/11/12 08:04:04;;;;;;;19.47;17.00;;;4.00;99.90;;;;;;5072350;28;20713;-74
2022/11/12 08:06:31;;;;;;;19.60;17.13;;;4.10;99.90;;;;;;5072311;28;20703;-75
2022/11/12 08:09:00;;;;;;;20.53;16.70;;;4.20;99.90;;;;;;5072749;28;20285;-75
2022/11/12 08:11:26;;;;;;;17.17;15.27;;;4.30;99.90;;;;;;5072098;28;20203;-74
2022/11/12 08:13:54;;;;;;;19.33;15.80;;;4.40;99.90;;;;;;5072613;28;20201;-74
2022/11/12 08:16:21;;;;;;;17.60;14.20;;;4.50;99.90;;;;;;5072157;28;20606;-73
2022/11/12 08:18:48;;;;;;;17.20;14.83;;;4.70;99.90;;;;;;5072357;28;20201;-74
2022/11/12 08:21:17;;;;;;;17.20;15.23;;;4.80;99.90;;;;;;5072303;28;20208;-73
2022/11/12 08:23:44;;;;;;;16.23;14.03;;;4.90;99.90;;;;;;5072580;28;20205;-75
2022/11/12 08:26:13;;;;;;;14.90;13.40;;;5.00;99.90;;;;;;5072479;28;20201;-73
2022/11/12 08:28:40;;;;;;;14.60;13.10;;;5.10;99.90;;;;;;5072363;28;20643;-74
2022/11/12 08:31:10;;;;;;;13.70;12.30;;;5.30;99.90;;;;;;5072093;28;20204;-75
2022/11/12 08:33:37;;;;;;;13.27;11.97;;;5.40;99.90;;;;;;5072243;28;20246;-74
2022/11/12 08:36:05;;;;;;;13.23;11.83;;;5.60;99.90;;;;;;5072092;28;20733;-73
2022/11/12 08:38:33;;;;;;;13.07;11.27;;;5.80;99.90;;;;;;5072186;28;20207;-76
2022/11/12 08:41:00;;;;;;;14.47;11.13;;;5.90;99.90;;;;;;5072242;28;20209;-74
2022/11/12 08:43:27;;;;;;;12.50;11.20;;;6.00;99.90;;;;;;5061215;28;20725;-74
2022/11/12 08:45:54;;;;;;;11.23;10.13;;;6.10;99.90;;;;;;5051899;28;20201;-73
2022/11/12 08:48:22;;;;;;;10.53;9.53;;;6.30;99.90;;;;;;5051873;28;20246;-76
2022/11/12 08:50:51;;;;;;;10.53;9.53;;;6.40;99.90;;;;;;5052082;28;20202;-75
2022/11/12 08:53:18;;;;;;;10.10;9.10;;;6.60;99.90;;;;;;5052035;28;20767;-76
2022/11/12 08:55:45;;;;;;;11.20;9.57;;;6.80;99.90;;;;;;5051849;28;20247;-75
2022/11/12 08:58:11;;;;;;;9.20;8.20;;;7.00;99.90;;;;;;5052732;28;20217;-76
2022/11/12 09:00:40;;;;;;;8.97;8.07;;;7.20;99.90;;;;;;5047194;28;20193;-90
2022/11/12 09:03:08;;;;;;;8.40;7.60;;;7.40;99.90;;;;;;5051785;28;20263;-75
2022/11/12 09:05:36;;;;;;;10.00;9.10;;;7.60;99.90;;;;;;5051722;28;20604;-77
2022/11/12 09:08:06;;;;;;;9.20;8.40;;;7.70;99.90;;;;;;5051827;28;20230;-75
2022/11/12 09:10:33;;;;;;;8.13;7.33;;;7.80;99.90;;;;;;5045814;28;20251;-71
2022/11/12 09:13:00;;;;;;;7.97;7.27;;;8.00;99.90;;;;;;5051949;28;20198;-73
2022/11/12 09:15:28;;;;;;;8.50;7.70;;;8.20;99.90;;;;;;5051691;28;20251;-76
2022/11/12 09:17:56;;;;;;;8.50;7.70;;;8.40;99.90;;;;;;5051717;28;20722;-77
2022/11/12 09:20:23;;;;;;;8.30;7.33;;;8.70;99.90;;;;;;5050608;28;20193;-73
2022/11/12 09:22:51;;;;;;;7.17;6.57;;;9.00;99.90;;;;;;5052938;28;20204;-73
2022/11/12 09:25:18;;;;;;;7.57;6.87;;;9.10;99.90;;;;;;5055087;28;20206;-74
2022/11/12 09:27:44;;;;;;;7.30;6.70;;;9.40;99.90;;;;;;5055022;28;20256;-73
2022/11/12 09:30:12;;;;;;;8.17;7.47;;;9.70;99.90;;;;;;5054942;28;20244;-75
2022/11/12 09:32:38;;;;;;;8.10;7.30;;;9.90;99.90;;;;;;5054979;28;20202;-74
2022/11/12 09:35:06;;;;;;;7.50;6.90;;;10.00;99.90;;;;;;5054694;28;20592;-78
2022/11/12 09:37:33;;;;;;;8.27;7.40;;;10.30;99.90;;;;;;5055079;28;20225;-75
2022/11/12 09:40:00;;;;;;;7.35;6.75;;;10.50;99.90;;;;;;5054944;28;20657;-75
2022/11/12 09:42:27;;;;;;;7.40;6.72;;;10.80;99.90;;;;;;5055048;28;20205;-73
2022/11/12 09:44:59;;;;;;;8.30;7.50;;;11.20;99.90;;;;;;5055033;28;20198;-73
2022/11/12 09:47:29;;;;;;;8.82;7.32;;;11.50;99.90;;;;;;5055136;28;20194;-72
2022/11/12 09:50:03;;;;;;;8.73;7.93;;;11.30;99.90;;;;;;5054859;28;20667;-72
2022/11/12 09:52:30;;;;;;;8.43;7.65;;;11.70;99.90;;;;;;5054902;28;20202;-73
2022/11/12 09:55:07;;;;;;;8.77;7.97;;;11.90;99.90;;;;;;5054497;28;20202;-73
2022/11/12 09:57:34;;;;;;;8.68;7.97;;;12.20;99.90;;;;;;5054908;28;20299;-73
2022/11/12 10:00:02;;;;;;;9.90;8.75;;;12.50;99.90;;;;;;5054899;28;20197;-75
2022/11/12 10:02:36;;;;;;;9.60;8.70;;;12.50;99.90;;;;;;5054778;28;20233;-73
2022/11/12 10:05:29;;;;;;;9.90;9.00;;;12.90;99.90;;;;;;5054750;28;20201;-75
2022/11/12 10:08:11;;;;;;;8.93;8.20;;;13.30;99.90;;;;;;5054584;28;20255;-75
2022/11/12 10:10:44;;;;;;;8.65;7.85;;;13.90;99.90;;;;;;5054687;28;20202;-75
2022/11/12 10:13:29;;;;;;;8.13;7.32;;;14.60;99.90;;;;;;5054713;28;20292;-75
2022/11/12 10:19:25;;;;;;;11.32;7.85;;;16.10;99.90;;;;;;5054525;28;20236;-74
2022/11/12 10:21:58;;;;;;;8.35;7.45;;;16.40;99.90;;;;;;5052326;28;20198;-69
2022/11/12 10:24:30;;;;;;;7.43;6.80;;;16.80;99.90;;;;;;5054635;28;20208;-70
2022/11/12 10:26:59;;;;;;;7.68;7.03;;;17.50;99.90;;;;;;5054151;28;20595;-72
2022/11/12 10:29:34;;;;;;;7.45;6.75;;;17.70;99.90;;;;;;5054211;28;20198;-78
2022/11/12 10:32:01;;;;;;;7.68;6.97;;;17.90;99.90;;;;;;5054024;28;20227;-74
2022/11/12 10:34:30;;;;;;;9.32;8.52;;;18.20;99.90;;;;;;5053795;28;20292;-75
2022/11/12 10:37:01;;;;;;;10.10;9.10;;;18.30;99.90;;;;;;5054179;28;20311;-75
2022/11/12 10:39:32;;;;;;;7.68;7.05;;;19.00;99.90;;;;;;5054253;28;20198;-75
2022/11/12 10:42:11;;;;;;;7.70;7.00;;;19.50;99.90;;;;;;5053944;28;20255;-74
2022/11/12 10:44:39;;;;;;;7.45;6.85;;;19.70;99.90;;;;;;5053687;28;20201;-74
2022/11/12 10:47:26;;;;;;;8.20;7.40;;;19.60;99.90;;;;;;5053633;28;20661;-72
2022/11/12 10:50:15;;;;;;;8.23;7.53;;;19.20;99.90;;;;;;5053754;28;20202;-73
2022/11/12 10:52:53;;;;;;;7.80;7.10;;;18.60;99.90;;;;;;5053880;28;20198;-73
2022/11/12 10:55:22;;;;;;;9.40;8.23;;;18.60;99.90;;;;;;5053617;28;20259;-73
2022/11/12 10:58:07;;;;;;;9.65;7.80;;;18.20;99.90;;;;;;5053843;28;20314;-75
2022/11/12 11:00:34;;;;;;;8.13;7.43;;;18.50;99.90;;;;;;5053667;28;20266;-73
2022/11/12 11:03:04;;;;;;;8.15;7.43;;;18.70;99.90;;;;;;5053663;28;20198;-73
2022/11/12 11:05:34;;;;;;;7.68;7.07;;;18.80;99.90;;;;;;5053445;28;20198;-74
2022/11/12 11:08:02;;;;;;;7.50;6.90;;;18.90;99.90;;;;;;5053347;28;20245;-74
2022/11/12 11:10:30;;;;;;;8.60;7.80;;;19.10;99.90;;;;;;5053555;28;20224;-76
2022/11/12 11:13:18;;;;;;;9.45;8.50;;;19.00;99.90;;;;;;5053495;28;20572;-75
2022/11/12 11:15:59;;;;;;;9.10;8.20;;;19.00;99.90;;;;;;5053469;28;20208;-73
2022/11/12 11:18:27;;;;;;;8.75;7.95;;;19.00;99.90;;;;;;5053120;28;20340;-73
2022/11/12 11:21:03;;;;;;;8.70;7.90;;;19.10;99.90;;;;;;5053259;28;20775;-73
2022/11/12 11:23:36;;;;;;;9.55;8.15;;;18.70;99.90;;;;;;5053490;28;20232;-75
2022/11/12 11:26:15;;;;;;;9.40;8.50;;;18.60;99.90;;;;;;5053466;28;20628;-76
2022/11/12 11:28:51;;;;;;;9.27;8.05;;;18.30;99.90;;;;;;5053335;28;20205;-79
2022/11/12 11:31:26;;;;;;;8.88;8.07;;;18.00;99.90;;;;;;5053021;28;20562;-78
2022/11/12 11:34:12;;;;;;;9.15;8.32;;;17.80;99.90;;;;;;5053327;28;20197;-78
2022/11/12 11:36:47;;;;;;;8.60;7.80;;;17.90;99.90;;;;;;5052942;28;20231;-75
2022/11/12 11:39:21;;;;;;;8.57;7.78;;;17.90;99.90;;;;;;5052908;28;20197;-73
2022/11/12 11:41:59;;;;;;;8.55;7.75;;;17.80;99.90;;;;;;5053059;28;20259;-75
2022/11/12 11:44:38;;;;;;;9.13;8.32;;;17.70;99.90;;;;;;5052987;28;20202;-75
2022/11/12 11:47:18;;;;;;;8.27;7.43;;;17.60;99.90;;;;;;5052620;28;20611;-75
2022/11/12 11:50:06;;;;;;;8.85;8.07;;;17.70;99.90;;;;;;5052719;28;20772;-74
2022/11/12 11:52:42;;;;;;;8.20;7.50;;;18.00;99.90;;;;;;5052900;28;20198;-74
2022/11/12 11:55:22;;;;;;;7.53;6.82;;;18.80;99.90;;;;;;5052907;28;20197;-74
2022/11/12 11:57:59;;;;;;;8.07;7.32;;;19.00;99.90;;;;;;5052585;28;20221;-74
2022/11/12 12:00:35;;;;;;;8.13;7.32;;;18.90;99.90;;;;;;5052729;28;20197;-75
2022/11/12 12:03:17;;;;;;;7.70;7.00;;;18.90;99.90;;;;;;5052803;28;20197;-74
2022/11/12 12:05:56;;;;;;;8.18;7.38;;;18.50;99.90;;;;;;5052673;28;20572;-74
2022/11/12 12:08:33;;;;;;;8.07;7.28;;;18.50;99.90;;;;;;5052506;28;20612;-75
2022/11/12 12:11:06;;;;;;;8.00;7.28;;;18.30;99.90;;;;;;5052598;28;20247;-76
2022/11/12 12:13:40;;;;;;;7.90;7.20;;;18.30;99.90;;;;;;5052659;28;20193;-85
2022/11/12 12:16:30;;;;;;;8.23;7.43;;;18.30;99.90;;;;;;5052828;28;20274;-86
2022/11/12 12:19:05;;;;;;;7.97;7.18;;;18.40;99.90;;;;;;5052555;28;20881;-77
2022/11/12 12:21:37;;;;;;;7.55;6.85;;;18.30;99.90;;;;;;5052488;28;20619;-78
2022/11/12 12:24:12;;;;;;;8.30;7.45;;;18.00;99.90;;;;;;5052457;28;20267;-79
2022/11/12 12:26:44;;;;;;;7.88;7.18;;;17.90;99.90;;;;;;5052180;28;20342;-79
2022/11/12 12:29:15;;;;;;;7.80;7.00;;;17.60;99.90;;;;;;5052447;28;20208;-77
2022/11/12 12:31:48;;;;;;;7.82;6.88;;;17.30;99.90;;;;;;5052145;28;20604;-78
2022/11/12 12:34:21;;;;;;;8.00;6.93;;;17.40;99.90;;;;;;5052369;28;20198;-73
2022/11/12 12:36:52;;;;;;;10.18;9.13;;;17.10;99.90;;;;;;5052421;28;20197;-74
2022/11/12 12:39:22;;;;;;;8.13;7.32;;;17.20;99.90;;;;;;5052443;28;20229;-75
2022/11/12 12:41:55;;;;;;;8.32;7.57;;;17.00;99.90;;;;;;5052341;28;20205;-74
2022/11/12 12:44:58;;;;;;;7.57;6.93;;;16.80;99.90;;;;;;5053261;28;20201;-74
2022/11/12 12:47:12;;;;;;;7.38;6.68;;;16.50;99.90;;;;;;5052042;28;20204;-75
2022/11/12 12:49:41;;;;;;;7.25;6.53;;;16.60;99.90;;;;;;5051830;28;20224;-73
2022/11/12 12:52:12;;;;;;;6.97;6.25;;;16.40;99.90;;;;;;5051936;28;20316;-73
2022/11/12 12:54:56;;;;;;;7.22;6.50;;;16.40;99.90;;;;;;5051596;28;20674;-77
2022/11/12 12:57:30;;;;;;;7.47;6.88;;;16.50;99.90;;;;;;5054176;28;20228;-75
2022/11/12 13:00:26;;;;;;;7.28;6.60;;;16.50;99.90;;;;;;5058272;28;20236;-86
2022/11/12 13:02:54;;;;;;;7.95;7.15;;;16.70;99.90;;;;;;5056628;28;20206;-84
2022/11/12 13:05:27;;;;;;;8.00;7.30;;;17.20;99.90;;;;;;5055541;28;20267;-70
2022/11/12 13:07:57;;;;;;;7.70;6.97;;;17.20;99.90;;;;;;5055421;28;20233;-74
2022/11/12 13:10:54;;;;;;;6.70;6.10;;;17.30;99.90;;;;;;5055768;28;20623;-74
2022/11/12 13:13:28;;;;;;;7.80;6.65;;;17.30;99.90;;;;;;5055715;28;20201;-75
2022/11/12 13:15:56;;;;;;;7.38;6.65;;;17.10;99.90;;;;;;5055745;28;20677;-75
2022/11/12 13:19:00;;;;;;;7.95;6.90;;;16.90;99.90;;;;;;5055430;28;20225;-75
2022/11/12 13:21:29;;;;;;;8.70;7.18;;;16.70;99.90;;;;;;5055844;28;20270;-76
2022/11/12 13:24:07;;;;;;;7.15;6.55;;;16.20;99.90;;;;;;5055793;28;20565;-75